createdAt,value
2022-12-27T00:00:01.714Z,0.00
2022-12-27T00:01:01.799Z,0.00
2022-12-27T00:02:01.739Z,0.00
2022-12-27T00:03:01.857Z,0.00
2022-12-27T00:04:01.629Z,0.00
2022-12-27T00:05:02.575Z,0.00
2022-12-27T00:06:01.647Z,0.00
2022-12-27T00:07:01.702Z,0.00
2022-12-27T00:08:01.587Z,0.00
2022-12-27T00:09:01.560Z,0.00
2022-12-27T00:10:01.544Z,0.00
2022-12-27T00:11:01.621Z,0.00
2022-12-27T00:12:02.474Z,0.00
2022-12-27T00:13:01.612Z,0.00
2022-12-27T00:14:01.493Z,0.00
2022-12-27T00:15:02.476Z,0.00
2022-12-27T00:16:01.485Z,0.00
2022-12-27T00:17:02.065Z,0.00
2022-12-27T00:18:01.429Z,0.00
2022-12-27T00:19:01.440Z,0.00
2022-12-27T00:20:08.336Z,0.00
2022-12-27T00:21:02.399Z,0.00
2022-12-27T00:22:01.417Z,0.00
2022-12-27T00:23:01.468Z,0.00
2022-12-27T00:24:01.359Z,0.00
2022-12-27T00:25:01.474Z,0.00
2022-12-27T00:26:01.369Z,0.00
2022-12-27T00:27:01.355Z,0.00
2022-12-27T00:28:01.327Z,0.00
2022-12-27T00:29:02.340Z,0.00
2022-12-27T00:30:01.437Z,0.00
2022-12-27T00:31:01.325Z,0.00
2022-12-27T00:32:01.320Z,0.00
2022-12-27T00:33:02.709Z,0.00
2022-12-27T00:34:01.446Z,0.00
2022-12-27T00:35:01.465Z,0.00
2022-12-27T00:36:01.224Z,0.00
2022-12-27T00:37:01.190Z,0.00
2022-12-27T00:38:01.971Z,0.00
2022-12-27T00:39:01.167Z,0.00
2022-12-27T00:40:01.285Z,0.00
2022-12-27T00:41:01.136Z,0.00
2022-12-27T00:42:02.101Z,0.00
2022-12-27T00:43:02.001Z,0.00
2022-12-27T00:44:01.108Z,0.00
2022-12-27T00:45:01.109Z,0.00
2022-12-27T00:46:01.148Z,0.00
2022-12-27T00:47:01.086Z,0.00
2022-12-27T00:48:01.100Z,0.00
2022-12-27T00:49:01.082Z,0.00
2022-12-27T00:50:01.097Z,0.00
2022-12-27T00:51:01.061Z,0.00
2022-12-27T00:52:01.082Z,0.00
2022-12-27T00:53:01.009Z,0.00
2022-12-27T00:54:01.543Z,0.00
2022-12-27T00:55:00.980Z,0.00
2022-12-27T00:56:01.029Z,0.00
2022-12-27T00:57:00.928Z,0.00
2022-12-27T00:58:00.922Z,0.00
2022-12-27T00:59:00.926Z,0.00
2022-12-27T01:00:06.190Z,0.00
2022-12-27T01:01:01.960Z,0.00
2022-12-27T01:02:01.034Z,0.00
2022-12-27T01:03:00.921Z,0.00
2022-12-27T01:04:00.954Z,0.00
2022-12-27T01:05:00.860Z,0.00
2022-12-27T01:06:00.874Z,0.00
2022-12-27T01:07:01.757Z,0.00
2022-12-27T01:08:01.660Z,0.00
2022-12-27T01:09:01.767Z,0.00
2022-12-27T01:10:00.814Z,0.00
2022-12-27T01:11:00.794Z,0.00
2022-12-27T01:12:00.776Z,0.00
2022-12-27T01:13:00.763Z,0.00
2022-12-27T01:14:01.618Z,0.00
2022-12-27T01:15:00.726Z,0.00
2022-12-27T01:16:00.697Z,0.00
2022-12-27T01:17:00.756Z,0.00
2022-12-27T01:18:00.762Z,0.00
2022-12-27T01:19:00.682Z,0.00
2022-12-27T01:20:00.691Z,0.00
2022-12-27T01:21:02.105Z,0.00
2022-12-27T01:22:00.654Z,0.00
2022-12-27T01:23:00.660Z,0.00
2022-12-27T01:24:00.778Z,0.00
2022-12-27T01:25:00.745Z,0.00
2022-12-27T01:26:00.590Z,0.00
2022-12-27T01:27:00.601Z,0.00
2022-12-27T01:28:00.641Z,0.00
2022-12-27T01:29:00.535Z,0.00
2022-12-27T01:30:00.580Z,0.00
2022-12-27T01:31:00.503Z,0.00
2022-12-27T01:32:01.436Z,0.00
2022-12-27T01:33:01.306Z,0.00
2022-12-27T01:34:00.529Z,0.00
2022-12-27T01:35:01.620Z,0.00
2022-12-27T01:36:00.537Z,0.00
2022-12-27T01:37:00.487Z,0.00
2022-12-27T01:38:00.417Z,0.00
2022-12-27T01:39:00.463Z,0.00
2022-12-27T01:40:00.484Z,0.00
2022-12-27T01:41:00.423Z,0.00
2022-12-27T01:42:00.508Z,0.00
2022-12-27T01:43:00.556Z,0.00
2022-12-27T01:44:00.395Z,0.00
2022-12-27T01:45:01.173Z,0.00
2022-12-27T01:46:00.382Z,0.00
2022-12-27T01:47:00.412Z,0.00
2022-12-27T01:48:00.307Z,0.00
2022-12-27T01:49:03.236Z,0.00
2022-12-27T01:50:00.292Z,0.00
2022-12-27T01:51:00.301Z,0.00
2022-12-27T01:52:00.267Z,0.00
2022-12-27T01:53:00.288Z,0.00
2022-12-27T01:54:00.231Z,0.00
2022-12-27T01:55:01.242Z,0.00
2022-12-27T01:56:00.405Z,0.00
2022-12-27T01:57:01.050Z,0.00
2022-12-27T01:58:00.245Z,0.00
2022-12-27T01:59:00.420Z,0.00
2022-12-27T02:00:00.166Z,0.00
2022-12-27T02:01:00.646Z,0.00
2022-12-27T02:02:00.241Z,0.00
2022-12-27T02:03:00.198Z,0.00
2022-12-27T02:04:00.167Z,0.00
2022-12-27T02:05:00.112Z,0.00
2022-12-27T02:06:00.115Z,0.00
2022-12-27T02:07:00.108Z,0.00
2022-12-27T02:08:00.129Z,0.00
2022-12-27T02:09:00.083Z,0.00
2022-12-27T02:10:00.830Z,0.00
2022-12-27T02:11:00.113Z,0.00
2022-12-27T02:12:00.024Z,0.00
2022-12-27T02:12:59.991Z,0.00
2022-12-27T02:14:00.025Z,0.00
2022-12-27T02:14:59.983Z,0.00
2022-12-27T02:15:59.956Z,0.00
2022-12-27T02:16:59.986Z,0.00
2022-12-27T02:17:59.929Z,0.00
2022-12-27T02:18:59.952Z,0.00
2022-12-27T02:19:59.903Z,0.00
2022-12-27T02:20:59.859Z,0.00
2022-12-27T02:21:59.919Z,0.00
2022-12-27T02:22:59.841Z,0.00
2022-12-27T02:23:59.863Z,0.00
2022-12-27T02:25:00.928Z,0.00
2022-12-27T02:25:59.862Z,0.00
2022-12-27T02:26:59.812Z,0.00
2022-12-27T02:27:59.780Z,0.00
2022-12-27T02:28:59.830Z,0.00
2022-12-27T02:29:59.766Z,0.00
2022-12-27T02:30:59.906Z,0.00
2022-12-27T02:31:59.741Z,0.00
2022-12-27T02:32:59.734Z,0.00
2022-12-27T02:33:59.735Z,0.00
2022-12-27T02:34:59.748Z,0.00
2022-12-27T02:35:59.740Z,0.00
2022-12-27T02:36:59.779Z,0.00
2022-12-27T02:37:59.690Z,0.00
2022-12-27T02:38:59.666Z,0.00
2022-12-27T02:39:59.694Z,0.00
2022-12-27T02:40:59.623Z,0.00
2022-12-27T02:41:59.634Z,0.00
2022-12-27T02:42:59.628Z,0.00
2022-12-27T02:43:59.592Z,0.00
2022-12-27T02:44:59.704Z,0.00
2022-12-27T02:45:59.656Z,0.00
2022-12-27T02:46:59.636Z,0.00
2022-12-27T02:47:59.562Z,0.00
2022-12-27T02:48:59.623Z,0.00
2022-12-27T02:49:59.525Z,0.00
2022-12-27T02:50:59.503Z,0.00
2022-12-27T02:51:59.512Z,0.00
2022-12-27T02:52:59.494Z,0.00
2022-12-27T02:53:59.470Z,0.00
2022-12-27T02:55:00.599Z,0.00
2022-12-27T02:55:59.983Z,0.00
2022-12-27T02:56:59.451Z,0.00
2022-12-27T02:57:59.424Z,0.00
2022-12-27T02:58:59.419Z,0.00
2022-12-27T02:59:59.483Z,0.00
2022-12-27T03:00:59.373Z,0.00
2022-12-27T03:01:59.482Z,0.00
2022-12-27T03:02:59.376Z,0.00
2022-12-27T03:03:59.314Z,0.00
2022-12-27T03:04:59.311Z,0.00
2022-12-27T03:05:59.286Z,0.00
2022-12-27T03:06:59.367Z,0.00
2022-12-27T03:07:59.268Z,0.00
2022-12-27T03:08:59.258Z,0.00
2022-12-27T03:09:59.257Z,0.00
2022-12-27T03:10:59.267Z,0.00
2022-12-27T03:11:59.223Z,0.00
2022-12-27T03:12:59.284Z,0.00
2022-12-27T03:13:59.375Z,0.00
2022-12-27T03:14:59.365Z,0.00
2022-12-27T03:15:59.231Z,0.00
2022-12-27T03:16:59.941Z,0.00
2022-12-27T03:17:59.220Z,0.00
2022-12-27T03:18:59.246Z,0.00
2022-12-27T03:19:59.157Z,0.00
2022-12-27T03:20:59.120Z,0.00
2022-12-27T03:21:59.111Z,0.00
2022-12-27T03:22:59.085Z,0.00
2022-12-27T03:23:59.117Z,0.00
2022-12-27T03:24:59.093Z,0.00
2022-12-27T03:26:00.175Z,0.00
2022-12-27T03:26:59.237Z,0.00
2022-12-27T03:27:59.257Z,0.00
2022-12-27T03:28:58.991Z,0.00
2022-12-27T03:29:59.018Z,0.00
2022-12-27T03:30:59.019Z,0.00
2022-12-27T03:31:58.963Z,0.00
2022-12-27T03:32:58.978Z,0.00
2022-12-27T03:33:58.957Z,0.00
2022-12-27T03:34:58.959Z,0.00
2022-12-27T03:35:58.921Z,0.00
2022-12-27T03:36:58.926Z,0.00
2022-12-27T03:37:58.886Z,0.00
2022-12-27T03:39:00.328Z,0.00
2022-12-27T03:39:59.859Z,0.00
2022-12-27T03:40:58.907Z,0.00
2022-12-27T03:41:58.857Z,0.00
2022-12-27T03:42:58.841Z,0.00
2022-12-27T03:43:58.816Z,0.00
2022-12-27T03:44:58.840Z,0.00
2022-12-27T03:45:58.797Z,0.00
2022-12-27T03:46:58.790Z,0.00
2022-12-27T03:47:58.762Z,0.00
2022-12-27T03:48:58.821Z,0.00
2022-12-27T03:49:58.779Z,0.00
2022-12-27T03:50:58.792Z,0.00
2022-12-27T03:51:59.028Z,0.00
2022-12-27T03:52:58.752Z,0.00
2022-12-27T03:53:59.543Z,0.00
2022-12-27T03:54:58.731Z,0.00
2022-12-27T03:55:58.643Z,0.00
2022-12-27T03:56:58.668Z,0.00
2022-12-27T03:57:58.704Z,0.00
2022-12-27T03:58:58.629Z,0.00
2022-12-27T03:59:58.692Z,0.00
2022-12-27T04:00:58.637Z,0.00
2022-12-27T04:01:58.673Z,0.00
2022-12-27T04:02:58.779Z,0.00
2022-12-27T04:03:58.630Z,0.00
2022-12-27T04:04:58.561Z,0.00
2022-12-27T04:05:59.410Z,0.00
2022-12-27T04:06:58.555Z,0.00
2022-12-27T04:07:58.545Z,0.00
2022-12-27T04:08:58.498Z,0.00
2022-12-27T04:09:58.489Z,0.00
2022-12-27T04:10:58.470Z,0.00
2022-12-27T04:11:58.558Z,0.00
2022-12-27T04:12:58.458Z,0.00
2022-12-27T04:13:58.429Z,0.00
2022-12-27T04:14:58.423Z,0.00
2022-12-27T04:15:58.446Z,0.00
2022-12-27T04:16:59.383Z,0.00
2022-12-27T04:17:59.007Z,0.00
2022-12-27T04:18:58.561Z,0.00
2022-12-27T04:19:58.404Z,0.00
2022-12-27T04:20:59.517Z,0.00
2022-12-27T04:21:58.352Z,0.00
2022-12-27T04:22:58.353Z,0.00
2022-12-27T04:23:58.305Z,0.00
2022-12-27T04:24:58.303Z,0.00
2022-12-27T04:25:58.322Z,0.00
2022-12-27T04:26:58.249Z,0.00
2022-12-27T04:27:58.281Z,0.00
2022-12-27T04:28:58.295Z,0.00
2022-12-27T04:29:58.274Z,0.00
2022-12-27T04:30:58.307Z,0.00
2022-12-27T04:31:58.572Z,0.00
2022-12-27T04:32:58.203Z,0.00
2022-12-27T04:33:58.242Z,0.00
2022-12-27T04:34:58.174Z,0.00
2022-12-27T04:36:02.748Z,0.00
2022-12-27T04:36:59.123Z,0.00
2022-12-27T04:37:58.261Z,0.00
2022-12-27T04:38:58.105Z,0.00
2022-12-27T04:39:58.099Z,0.00
2022-12-27T04:40:58.133Z,0.00
2022-12-27T04:41:58.124Z,0.00
2022-12-27T04:42:58.156Z,0.00
2022-12-27T04:43:58.068Z,0.00
2022-12-27T04:44:58.128Z,0.00
2022-12-27T04:45:58.033Z,0.00
2022-12-27T04:46:58.015Z,0.00
2022-12-27T04:47:58.060Z,0.00
2022-12-27T04:48:58.000Z,0.00
2022-12-27T04:49:58.774Z,0.00
2022-12-27T04:50:57.956Z,0.00
2022-12-27T04:51:58.156Z,0.00
2022-12-27T04:52:58.013Z,0.00
2022-12-27T04:53:57.930Z,0.00
2022-12-27T04:54:57.945Z,0.00
2022-12-27T04:55:58.705Z,0.00
2022-12-27T04:56:58.046Z,0.00
2022-12-27T04:57:57.969Z,0.00
2022-12-27T04:58:57.898Z,0.00
2022-12-27T04:59:58.223Z,0.00
2022-12-27T05:00:57.879Z,0.00
2022-12-27T05:01:57.928Z,0.00
2022-12-27T05:02:57.931Z,0.00
2022-12-27T05:03:57.808Z,0.00
2022-12-27T05:04:58.282Z,0.00
2022-12-27T05:05:57.816Z,0.00
2022-12-27T05:06:58.621Z,0.00
2022-12-27T05:07:57.801Z,0.00
2022-12-27T05:08:58.993Z,0.00
2022-12-27T05:09:58.896Z,0.00
2022-12-27T05:10:57.709Z,0.00
2022-12-27T05:11:57.738Z,0.00
2022-12-27T05:12:57.680Z,0.00
2022-12-27T05:13:57.702Z,0.00
2022-12-27T05:14:57.659Z,0.00
2022-12-27T05:15:57.693Z,0.00
2022-12-27T05:16:57.705Z,0.00
2022-12-27T05:17:57.649Z,0.00
2022-12-27T05:18:57.625Z,0.00
2022-12-27T05:19:59.075Z,0.00
2022-12-27T05:20:58.356Z,0.00
2022-12-27T05:21:57.666Z,0.00
2022-12-27T05:22:58.682Z,0.00
2022-12-27T05:24:03.416Z,0.00
2022-12-27T05:24:58.528Z,0.00
2022-12-27T05:25:57.567Z,0.00
2022-12-27T05:26:57.527Z,0.00
2022-12-27T05:27:57.488Z,0.00
2022-12-27T05:28:57.488Z,0.00
2022-12-27T05:29:57.456Z,0.00
2022-12-27T05:30:57.536Z,0.00
2022-12-27T05:31:57.481Z,0.00
2022-12-27T05:32:57.569Z,0.00
2022-12-27T05:33:57.494Z,0.00
2022-12-27T05:34:58.168Z,0.00
2022-12-27T05:35:58.167Z,0.00
2022-12-27T05:36:57.388Z,0.00
2022-12-27T05:37:58.261Z,0.00
2022-12-27T05:38:57.348Z,0.00
2022-12-27T05:39:57.454Z,0.00
2022-12-27T05:40:57.348Z,0.00
2022-12-27T05:41:57.344Z,0.00
2022-12-27T05:42:57.487Z,0.00
2022-12-27T05:44:02.095Z,0.00
2022-12-27T05:44:58.279Z,0.00
2022-12-27T05:45:57.359Z,0.00
2022-12-27T05:46:57.727Z,0.00
2022-12-27T05:47:57.267Z,0.00
2022-12-27T05:48:57.220Z,0.00
2022-12-27T05:49:57.219Z,0.00
2022-12-27T05:50:57.408Z,0.00
2022-12-27T05:51:57.299Z,0.00
2022-12-27T05:52:57.298Z,0.00
2022-12-27T05:53:57.217Z,0.00
2022-12-27T05:54:57.154Z,0.00
2022-12-27T05:55:57.138Z,0.00
2022-12-27T05:56:57.127Z,0.00
2022-12-27T05:57:57.885Z,0.00
2022-12-27T05:58:57.201Z,0.00
2022-12-27T05:59:57.113Z,0.00
2022-12-27T06:00:57.320Z,0.00
2022-12-27T06:01:57.270Z,0.00
2022-12-27T06:02:57.203Z,0.00
2022-12-27T06:03:58.023Z,0.00
2022-12-27T06:04:57.091Z,0.00
2022-12-27T06:05:57.042Z,0.00
2022-12-27T06:06:58.030Z,0.00
2022-12-27T06:07:56.993Z,0.00
2022-12-27T06:08:57.138Z,0.00
2022-12-27T06:09:56.954Z,0.00
2022-12-27T06:10:57.020Z,0.00
2022-12-27T06:11:58.063Z,0.00
2022-12-27T06:12:57.519Z,0.00
2022-12-27T06:13:56.920Z,0.00
2022-12-27T06:14:56.883Z,0.00
2022-12-27T06:15:56.944Z,0.00
2022-12-27T06:16:56.898Z,0.00
2022-12-27T06:17:56.909Z,0.00
2022-12-27T06:18:56.893Z,0.00
2022-12-27T06:19:57.490Z,0.00
2022-12-27T06:20:56.854Z,0.00
2022-12-27T06:21:56.874Z,0.00
2022-12-27T06:22:56.857Z,0.00
2022-12-27T06:23:56.934Z,0.00
2022-12-27T06:24:57.842Z,0.00
2022-12-27T06:25:56.865Z,0.00
2022-12-27T06:26:56.733Z,0.00
2022-12-27T06:27:56.719Z,0.00
2022-12-27T06:28:56.766Z,0.00
2022-12-27T06:29:56.684Z,0.00
2022-12-27T06:30:56.711Z,0.00
2022-12-27T06:31:56.686Z,0.00
2022-12-27T06:32:57.389Z,0.00
2022-12-27T06:33:56.635Z,0.00
2022-12-27T06:34:56.654Z,0.00
2022-12-27T06:35:56.673Z,0.00
2022-12-27T06:36:57.027Z,0.00
2022-12-27T06:37:56.615Z,0.00
2022-12-27T06:38:56.594Z,0.00
2022-12-27T06:39:56.656Z,0.00
2022-12-27T06:40:56.578Z,0.00
2022-12-27T06:41:56.605Z,0.00
2022-12-27T06:42:56.577Z,0.00
2022-12-27T06:43:56.556Z,0.00
2022-12-27T06:44:56.525Z,0.00
2022-12-27T06:45:56.521Z,0.00
2022-12-27T06:46:56.521Z,0.00
2022-12-27T06:47:56.447Z,0.00
2022-12-27T06:48:56.931Z,0.00
2022-12-27T06:49:56.695Z,0.00
2022-12-27T06:50:56.747Z,0.00
2022-12-27T06:51:59.732Z,4.00
2022-12-27T06:52:56.442Z,0.00
2022-12-27T06:53:56.990Z,0.00
2022-12-27T06:54:57.505Z,4.00
2022-12-27T06:55:56.382Z,4.00
2022-12-27T06:56:56.354Z,0.00
2022-12-27T06:57:56.349Z,4.00
2022-12-27T06:58:56.336Z,4.00
2022-12-27T06:59:56.312Z,4.00
2022-12-27T07:00:56.392Z,4.00
2022-12-27T07:01:57.596Z,8.00
2022-12-27T07:02:56.362Z,8.00
2022-12-27T07:03:56.889Z,4.00
2022-12-27T07:04:57.080Z,4.00
2022-12-27T07:05:56.268Z,8.00
2022-12-27T07:06:56.267Z,8.00
2022-12-27T07:07:56.240Z,8.00
2022-12-27T07:08:56.249Z,12.00
2022-12-27T07:09:56.202Z,12.00
2022-12-27T07:10:56.148Z,12.00
2022-12-27T07:11:56.152Z,12.00
2022-12-27T07:12:56.167Z,16.00
2022-12-27T07:13:56.188Z,20.00
2022-12-27T07:14:56.159Z,20.00
2022-12-27T07:15:56.176Z,20.00
2022-12-27T07:16:56.123Z,24.00
2022-12-27T07:17:56.074Z,20.00
2022-12-27T07:18:56.461Z,20.00
2022-12-27T07:19:56.054Z,32.00
2022-12-27T07:20:56.582Z,40.00
2022-12-27T07:21:56.035Z,48.00
2022-12-27T07:22:56.024Z,48.00
2022-12-27T07:23:56.070Z,52.00
2022-12-27T07:24:55.980Z,68.00
2022-12-27T07:25:55.972Z,80.00
2022-12-27T07:26:55.992Z,72.00
2022-12-27T07:27:56.913Z,80.00
2022-12-27T07:28:55.961Z,88.00
2022-12-27T07:29:56.875Z,88.00
2022-12-27T07:30:55.919Z,88.00
2022-12-27T07:31:55.960Z,104.00
2022-12-27T07:32:55.940Z,108.00
2022-12-27T07:33:55.934Z,124.00
2022-12-27T07:34:55.848Z,136.00
2022-12-27T07:35:55.861Z,172.00
2022-12-27T07:36:55.822Z,172.00
2022-12-27T07:37:55.827Z,176.00
2022-12-27T07:38:56.024Z,204.00
2022-12-27T07:39:55.778Z,184.00
2022-12-27T07:40:56.693Z,232.00
2022-12-27T07:41:55.808Z,244.00
2022-12-27T07:42:55.800Z,216.00
2022-12-27T07:43:55.746Z,200.00
2022-12-27T07:44:55.764Z,220.00
2022-12-27T07:45:55.759Z,252.00
2022-12-27T07:46:55.756Z,288.00
2022-12-27T07:47:55.713Z,316.00
2022-12-27T07:48:55.665Z,252.00
2022-12-27T07:49:55.768Z,284.00
2022-12-27T07:50:55.643Z,288.00
2022-12-27T07:51:55.628Z,276.00
2022-12-27T07:52:55.626Z,280.00
2022-12-27T07:53:56.590Z,296.00
2022-12-27T07:54:56.129Z,380.00
2022-12-27T07:55:55.607Z,428.00
2022-12-27T07:56:55.584Z,328.00
2022-12-27T07:57:55.590Z,416.00
2022-12-27T07:58:55.582Z,532.00
2022-12-27T07:59:55.544Z,540.00
2022-12-27T08:00:55.606Z,636.00
2022-12-27T08:01:55.719Z,828.00
2022-12-27T08:02:55.512Z,804.00
2022-12-27T08:03:55.506Z,856.00
2022-12-27T08:04:55.514Z,864.00
2022-12-27T08:05:55.538Z,832.00
2022-12-27T08:06:55.866Z,900.00
2022-12-27T08:07:55.573Z,928.00
2022-12-27T08:08:55.457Z,808.00
2022-12-27T08:09:55.429Z,748.00
2022-12-27T08:10:58.288Z,668.00
2022-12-27T08:11:56.402Z,596.00
2022-12-27T08:12:55.344Z,704.00
2022-12-27T08:13:55.400Z,1048.00
2022-12-27T08:14:55.410Z,1204.00
2022-12-27T08:15:55.350Z,1296.00
2022-12-27T08:16:55.362Z,1148.00
2022-12-27T08:17:55.315Z,1164.00
2022-12-27T08:18:56.325Z,1384.00
2022-12-27T08:19:55.274Z,1352.00
2022-12-27T08:20:55.311Z,1176.00
2022-12-27T08:21:55.336Z,1228.00
2022-12-27T08:22:55.249Z,1248.00
2022-12-27T08:23:55.260Z,1452.00
2022-12-27T08:24:55.237Z,1584.00
2022-12-27T08:25:55.178Z,1676.00
2022-12-27T08:26:55.180Z,1848.00
2022-12-27T08:27:56.269Z,2204.00
2022-12-27T08:28:55.460Z,2096.00
2022-12-27T08:29:55.141Z,2020.00
2022-12-27T08:30:55.211Z,2120.00
2022-12-27T08:31:55.263Z,2248.00
2022-12-27T08:32:55.199Z,2380.00
2022-12-27T08:33:58.588Z,2424.00
2022-12-27T08:34:55.140Z,2472.00
2022-12-27T08:35:55.281Z,2384.00
2022-12-27T08:36:56.143Z,2072.00
2022-12-27T08:37:55.052Z,2412.00
2022-12-27T08:38:55.081Z,2156.00
2022-12-27T08:40:00.841Z,2072.00
2022-12-27T08:40:56.051Z,1812.00
2022-12-27T08:41:55.008Z,1864.00
2022-12-27T08:42:54.954Z,1804.00
2022-12-27T08:43:55.762Z,1944.00
2022-12-27T08:44:55.333Z,2108.00
2022-12-27T08:45:55.012Z,2232.00
2022-12-27T08:46:55.000Z,2696.00
2022-12-27T08:47:54.923Z,3304.00
2022-12-27T08:48:54.985Z,2888.00
2022-12-27T08:49:54.923Z,3196.00
2022-12-27T08:50:54.858Z,2276.00
2022-12-27T08:51:54.979Z,2312.00
2022-12-27T08:52:54.834Z,2712.00
2022-12-27T08:53:54.907Z,2820.00
2022-12-27T08:54:54.833Z,2592.00
2022-12-27T08:55:54.858Z,2472.00
2022-12-27T08:56:54.899Z,2432.00
2022-12-27T08:57:55.953Z,2348.00
2022-12-27T08:58:54.880Z,2428.00
2022-12-27T08:59:54.821Z,2608.00
2022-12-27T09:00:54.766Z,2524.00
2022-12-27T09:01:54.944Z,2740.00
2022-12-27T09:02:54.772Z,2772.00
2022-12-27T09:03:54.717Z,2748.00
2022-12-27T09:04:54.784Z,2416.00
2022-12-27T09:05:54.771Z,3088.00
2022-12-27T09:06:54.693Z,3356.00
2022-12-27T09:07:54.664Z,3180.00
2022-12-27T09:08:54.808Z,3492.00
2022-12-27T09:09:54.756Z,3268.00
2022-12-27T09:10:54.663Z,2864.00
2022-12-27T09:11:54.632Z,2144.00
2022-12-27T09:12:54.575Z,2252.00
2022-12-27T09:13:54.591Z,3180.00
2022-12-27T09:14:54.547Z,4228.00
2022-12-27T09:15:54.597Z,3660.00
2022-12-27T09:16:54.566Z,3864.00
2022-12-27T09:17:54.522Z,2724.00
2022-12-27T09:18:54.520Z,2296.00
2022-12-27T09:19:54.746Z,2472.00
2022-12-27T09:20:54.976Z,2364.00
2022-12-27T09:21:54.498Z,2252.00
2022-12-27T09:22:54.531Z,2388.00
2022-12-27T09:23:54.471Z,2532.00
2022-12-27T09:24:54.503Z,3312.00
2022-12-27T09:25:54.429Z,3568.00
2022-12-27T09:26:54.475Z,4248.00
2022-12-27T09:27:54.417Z,3752.00
2022-12-27T09:28:54.491Z,2708.00
2022-12-27T09:29:54.359Z,1972.00
2022-12-27T09:30:54.445Z,2172.00
2022-12-27T09:31:54.427Z,1880.00
2022-12-27T09:32:54.361Z,1780.00
2022-12-27T09:33:54.321Z,1660.00
2022-12-27T09:34:54.355Z,1184.00
2022-12-27T09:35:54.282Z,1396.00
2022-12-27T09:36:54.357Z,1448.00
2022-12-27T09:37:54.299Z,1756.00
2022-12-27T09:38:54.278Z,1752.00
2022-12-27T09:39:54.279Z,2180.00
2022-12-27T09:40:54.257Z,2160.00
2022-12-27T09:43:07.553Z,2360.00
2022-12-27T09:43:55.187Z,2568.00
2022-12-27T09:44:54.177Z,2704.00
2022-12-27T09:45:54.264Z,2884.00
2022-12-27T09:46:54.138Z,2728.00
2022-12-27T09:47:54.173Z,2728.00
2022-12-27T09:48:54.180Z,2924.00
2022-12-27T09:49:54.149Z,2964.00
2022-12-27T09:50:54.094Z,3260.00
2022-12-27T09:51:54.102Z,3712.00
2022-12-27T09:52:54.112Z,3632.00
2022-12-27T09:53:54.132Z,2768.00
2022-12-27T09:54:57.860Z,3600.00
2022-12-27T09:55:55.052Z,5052.00
2022-12-27T09:57:19.069Z,3456.00
2022-12-27T09:57:55.052Z,3248.00
2022-12-27T09:58:54.072Z,3248.00
2022-12-27T09:59:54.001Z,3620.00
2022-12-27T10:00:53.972Z,3808.00
2022-12-27T10:01:54.121Z,5032.00
2022-12-27T10:02:54.046Z,4608.00
2022-12-27T10:03:53.981Z,4288.00
2022-12-27T10:05:56.612Z,2768.00
2022-12-27T10:06:53.943Z,2972.00
2022-12-27T10:07:53.889Z,2936.00
2022-12-27T10:08:53.897Z,2772.00
2022-12-27T10:09:54.061Z,2756.00
2022-12-27T10:10:53.885Z,2712.00
2022-12-27T10:11:53.857Z,2708.00
2022-12-27T10:12:53.852Z,2680.00
2022-12-27T10:13:54.809Z,2584.00
2022-12-27T10:14:53.870Z,2592.00
2022-12-27T10:15:54.851Z,2696.00
2022-12-27T10:16:53.766Z,2456.00
2022-12-27T10:17:53.833Z,2452.00
2022-12-27T10:18:53.738Z,2632.00
2022-12-27T10:19:53.813Z,2692.00
2022-12-27T10:20:53.775Z,2712.00
2022-12-27T10:21:53.696Z,2784.00
2022-12-27T10:22:53.695Z,2880.00
2022-12-27T10:23:53.695Z,2956.00
2022-12-27T10:24:53.687Z,2800.00
2022-12-27T10:25:53.741Z,2624.00
2022-12-27T10:26:54.075Z,2896.00
2022-12-27T10:27:53.624Z,3128.00
2022-12-27T10:28:57.179Z,3352.00
2022-12-27T10:29:53.687Z,3132.00
2022-12-27T10:30:53.666Z,3176.00
2022-12-27T10:31:53.575Z,3184.00
2022-12-27T10:32:53.561Z,3192.00
2022-12-27T10:33:53.536Z,3152.00
2022-12-27T10:34:53.545Z,3108.00
2022-12-27T10:35:53.564Z,3488.00
2022-12-27T10:36:53.541Z,3716.00
2022-12-27T10:37:53.646Z,3112.00
2022-12-27T10:38:53.536Z,2984.00
2022-12-27T10:39:54.365Z,3088.00
2022-12-27T10:40:53.489Z,2884.00
2022-12-27T10:41:53.429Z,2800.00
2022-12-27T10:42:53.442Z,2944.00
2022-12-27T10:43:53.441Z,3196.00
2022-12-27T10:44:53.427Z,3700.00
2022-12-27T10:45:53.456Z,4896.00
2022-12-27T10:46:53.442Z,3360.00
2022-12-27T10:47:53.359Z,2932.00
2022-12-27T10:49:20.111Z,3016.00
2022-12-27T10:49:54.320Z,3500.00
2022-12-27T10:50:53.612Z,3424.00
2022-12-27T10:51:53.331Z,3068.00
2022-12-27T10:52:57.514Z,3244.00
2022-12-27T10:53:54.554Z,3464.00
2022-12-27T10:54:53.346Z,3008.00
2022-12-27T10:55:53.277Z,2992.00
2022-12-27T10:56:53.285Z,3064.00
2022-12-27T10:57:53.229Z,3096.00
2022-12-27T10:58:58.870Z,3044.00
2022-12-27T10:59:54.208Z,2996.00
2022-12-27T11:00:53.331Z,3224.00
2022-12-27T11:01:53.290Z,3704.00
2022-12-27T11:02:53.229Z,3596.00
2022-12-27T11:03:53.168Z,3068.00
2022-12-27T11:04:53.156Z,3916.00
2022-12-27T11:05:53.328Z,5012.00
2022-12-27T11:06:53.159Z,4056.00
2022-12-27T11:07:53.111Z,3172.00
2022-12-27T11:08:53.145Z,3092.00
2022-12-27T11:09:53.120Z,3064.00
2022-12-27T11:10:53.105Z,3004.00
2022-12-27T11:11:53.212Z,2936.00
2022-12-27T11:12:53.071Z,3004.00
2022-12-27T11:13:53.110Z,3152.00
2022-12-27T11:14:53.035Z,3020.00
2022-12-27T11:15:56.819Z,2900.00
2022-12-27T11:16:54.065Z,2816.00
2022-12-27T11:17:52.993Z,3088.00
2022-12-27T11:18:53.345Z,3040.00
2022-12-27T11:19:52.971Z,2932.00
2022-12-27T11:20:53.022Z,3032.00
2022-12-27T11:21:52.953Z,3464.00
2022-12-27T11:22:52.912Z,3860.00
2022-12-27T11:23:52.876Z,3296.00
2022-12-27T11:24:52.918Z,3152.00
2022-12-27T11:25:52.901Z,3292.00
2022-12-27T11:26:54.194Z,3136.00
2022-12-27T11:27:52.904Z,3008.00
2022-12-27T11:28:52.862Z,2960.00
2022-12-27T11:29:52.814Z,2884.00
2022-12-27T11:30:52.803Z,3112.00
2022-12-27T11:31:52.906Z,2984.00
2022-12-27T11:32:52.793Z,2968.00
2022-12-27T11:33:52.791Z,2856.00
2022-12-27T11:34:52.784Z,2896.00
2022-12-27T11:35:52.764Z,2912.00
2022-12-27T11:36:52.728Z,2808.00
2022-12-27T11:37:52.734Z,2852.00
2022-12-27T11:38:52.752Z,2940.00
2022-12-27T11:39:52.725Z,2956.00
2022-12-27T11:40:52.688Z,2960.00
2022-12-27T11:41:52.700Z,3008.00
2022-12-27T11:42:52.687Z,3052.00
2022-12-27T11:43:52.677Z,3328.00
2022-12-27T11:44:52.632Z,3464.00
2022-12-27T11:45:52.597Z,3360.00
2022-12-27T11:46:58.534Z,3148.00
2022-12-27T11:47:53.589Z,3000.00
2022-12-27T11:48:52.657Z,2952.00
2022-12-27T11:49:52.565Z,2976.00
2022-12-27T11:50:52.596Z,2984.00
2022-12-27T11:51:52.542Z,3032.00
2022-12-27T11:52:52.553Z,3116.00
2022-12-27T11:53:56.294Z,3260.00
2022-12-27T11:54:52.517Z,3120.00
2022-12-27T11:55:52.513Z,3088.00
2022-12-27T11:56:53.465Z,3008.00
2022-12-27T11:57:52.637Z,2852.00
2022-12-27T11:58:52.496Z,2912.00
2022-12-27T11:59:52.484Z,2764.00
2022-12-27T12:00:52.419Z,2656.00
2022-12-27T12:01:52.532Z,2680.00
2022-12-27T12:02:52.480Z,2748.00
2022-12-27T12:03:52.411Z,2772.00
2022-12-27T12:04:52.410Z,2780.00
2022-12-27T12:05:52.468Z,2828.00
2022-12-27T12:06:52.361Z,2836.00
2022-12-27T12:07:52.326Z,3096.00
2022-12-27T12:08:52.358Z,3228.00
2022-12-27T12:09:52.344Z,3952.00
2022-12-27T12:10:52.387Z,4504.00
2022-12-27T12:11:55.172Z,4656.00
2022-12-27T12:12:52.300Z,4560.00
2022-12-27T12:13:52.399Z,4640.00
2022-12-27T12:14:52.261Z,4516.00
2022-12-27T12:15:52.238Z,4364.00
2022-12-27T12:16:52.311Z,3964.00
2022-12-27T12:17:52.239Z,3824.00
2022-12-27T12:18:52.182Z,3800.00
2022-12-27T12:19:52.324Z,3832.00
2022-12-27T12:20:52.215Z,3632.00
2022-12-27T12:21:52.282Z,2840.00
2022-12-27T12:22:52.163Z,2764.00
2022-12-27T12:23:52.133Z,3132.00
2022-12-27T12:24:52.148Z,3588.00
2022-12-27T12:25:52.098Z,3940.00
2022-12-27T12:26:55.855Z,4444.00
2022-12-27T12:27:52.080Z,5396.00
2022-12-27T12:29:00.310Z,6148.00
2022-12-27T12:29:53.053Z,5908.00
2022-12-27T12:30:52.079Z,5380.00
2022-12-27T12:31:52.034Z,5548.00
2022-12-27T12:32:52.008Z,5104.00
2022-12-27T12:33:52.070Z,3664.00
2022-12-27T12:34:52.025Z,2936.00
2022-12-27T12:35:52.065Z,2548.00
2022-12-27T12:36:52.908Z,2312.00
2022-12-27T12:37:51.966Z,2164.00
2022-12-27T12:38:51.983Z,2236.00
2022-12-27T12:39:51.993Z,2320.00
2022-12-27T12:40:51.962Z,2096.00
2022-12-27T12:41:52.000Z,2060.00
2022-12-27T12:42:51.939Z,2220.00
2022-12-27T12:43:51.893Z,2460.00
2022-12-27T12:44:51.899Z,2480.00
2022-12-27T12:45:53.073Z,2788.00
2022-12-27T12:46:51.979Z,2616.00
2022-12-27T12:47:51.928Z,2752.00
2022-12-27T12:48:51.808Z,3332.00